createdAt,value
2019-02-12T00:00:41.588Z,102430.88
2019-02-12T00:03:11.066Z,102435.90
2019-02-12T00:05:40.575Z,102435.02
2019-02-12T00:08:29.378Z,102436.20
2019-02-12T00:10:58.852Z,102444.34
2019-02-12T00:13:28.337Z,102454.23
2019-02-12T00:15:57.893Z,102464.73
2019-02-12T00:18:27.386Z,102466.35
2019-02-12T00:20:56.912Z,102469.70
2019-02-12T00:23:26.407Z,102483.75
2019-02-12T00:25:55.964Z,102487.71
2019-02-12T00:28:25.514Z,102490.05
2019-02-12T00:30:54.985Z,102498.94
2019-02-12T00:33:24.483Z,102507.84
2019-02-12T00:35:53.979Z,102507.92
2019-02-12T00:38:23.475Z,102511.39
2019-02-12T00:40:52.951Z,102509.81
2019-02-12T00:43:22.535Z,102509.72
2019-02-12T00:45:52.033Z,102506.76
2019-02-12T00:48:21.528Z,102509.06
2019-02-12T00:50:51.026Z,102500.64
2019-02-12T00:53:20.508Z,102493.70
2019-02-12T00:55:50.002Z,102495.23
2019-02-12T00:58:19.489Z,102499.18
2019-02-12T01:00:48.980Z,102507.56
2019-02-12T01:03:18.474Z,102508.78
2019-02-12T01:05:47.941Z,102512.84
2019-02-12T01:08:17.437Z,102522.70
2019-02-12T01:10:46.945Z,102529.80
2019-02-12T01:13:16.419Z,102518.90
2019-02-12T01:15:45.928Z,102513.97
2019-02-12T01:18:15.437Z,102513.61
2019-02-12T01:20:45.000Z,102521.02
2019-02-12T01:23:14.502Z,102516.23
2019-02-12T01:25:43.989Z,102525.00
2019-02-12T01:28:13.482Z,102519.53
2019-02-12T01:30:42.985Z,102521.59
2019-02-12T01:33:12.533Z,102519.57
2019-02-12T01:35:42.014Z,102515.97
2019-02-12T01:38:11.512Z,102526.98
2019-02-12T01:40:41.018Z,102527.48
2019-02-12T01:43:10.511Z,102529.16
2019-02-12T01:45:39.995Z,102525.12
2019-02-12T01:48:09.562Z,102524.67
2019-02-12T01:50:39.051Z,102522.44
2019-02-12T01:53:08.604Z,102525.62
2019-02-12T01:55:38.090Z,102514.75
2019-02-12T01:58:07.612Z,102513.27
2019-02-12T02:00:37.178Z,102514.05
2019-02-12T02:03:06.662Z,102514.53
2019-02-12T02:05:36.154Z,102527.83
2019-02-12T02:08:05.690Z,102510.89
2019-02-12T02:10:35.131Z,102512.43
2019-02-12T02:13:04.617Z,102517.79
2019-02-12T02:15:34.102Z,102516.78
2019-02-12T02:18:03.571Z,102515.41
2019-02-12T02:20:33.109Z,102522.45
2019-02-12T02:23:02.680Z,102522.35
2019-02-12T02:25:32.169Z,102520.45
2019-02-12T02:28:01.658Z,102528.23
2019-02-12T02:30:31.303Z,102527.02
2019-02-12T02:33:00.844Z,102525.23
2019-02-12T02:35:30.401Z,102525.83
2019-02-12T02:37:59.877Z,102525.55
2019-02-12T02:40:29.432Z,102527.94
2019-02-12T02:42:58.928Z,102530.59
2019-02-12T02:45:28.409Z,102531.58
2019-02-12T02:47:57.894Z,102522.04
2019-02-12T02:50:27.380Z,102527.73
2019-02-12T02:52:56.864Z,102532.15
2019-02-12T02:55:26.419Z,102533.34
2019-02-12T02:57:55.923Z,102528.86
2019-02-12T03:00:25.478Z,102533.75
2019-02-12T03:02:54.949Z,102538.52
2019-02-12T03:05:24.506Z,102543.09
2019-02-12T03:07:54.058Z,102547.97
2019-02-12T03:10:23.632Z,102545.70
2019-02-12T03:12:53.180Z,102546.80
2019-02-12T03:15:22.667Z,102548.58
2019-02-12T03:17:52.161Z,102548.84
2019-02-12T03:20:21.640Z,102545.66
2019-02-12T03:22:51.304Z,102555.61
2019-02-12T03:25:20.781Z,102557.36
2019-02-12T03:27:50.270Z,102557.98
2019-02-12T03:30:19.783Z,102560.46
2019-02-12T03:32:49.277Z,102560.91
2019-02-12T03:35:18.783Z,102558.94
2019-02-12T03:37:48.278Z,102562.77
2019-02-12T03:40:17.752Z,102561.17
2019-02-12T03:42:47.252Z,102562.45
2019-02-12T03:45:16.862Z,102567.58
2019-02-12T03:47:46.350Z,102571.73
2019-02-12T03:50:15.825Z,102566.75
2019-02-12T03:52:45.306Z,102562.27
2019-02-12T03:55:15.027Z,102569.32
2019-02-12T03:57:44.574Z,102559.11
2019-02-12T04:00:17.385Z,102570.13
2019-02-12T04:03:07.095Z,102572.73
2019-02-12T04:05:38.589Z,102569.31
2019-02-12T04:08:08.227Z,102567.82
2019-02-12T04:10:37.774Z,102571.48
2019-02-12T04:13:07.386Z,102568.47
2019-02-12T04:15:37.073Z,102566.63
2019-02-12T04:18:06.559Z,102563.30
2019-02-12T04:20:36.129Z,102560.34
2019-02-12T04:23:05.781Z,102563.45
2019-02-12T04:25:35.281Z,102562.54
2019-02-12T04:28:04.842Z,102557.00
2019-02-12T04:30:34.346Z,102560.17
2019-02-12T04:33:03.841Z,102561.98
2019-02-12T04:35:33.320Z,102560.03
2019-02-12T04:38:02.821Z,102565.47
2019-02-12T04:40:32.393Z,102574.70
2019-02-12T04:43:01.890Z,102575.54
2019-02-12T04:45:31.432Z,102586.09
2019-02-12T04:48:00.906Z,102582.80
2019-02-12T04:50:30.426Z,102587.03
2019-02-12T04:52:59.939Z,102586.41
2019-02-12T04:55:29.478Z,102588.49
2019-02-12T04:57:58.942Z,102591.69
2019-02-12T05:00:28.511Z,102583.00
2019-02-12T05:02:58.144Z,102580.57
2019-02-12T05:05:27.629Z,102581.72
2019-02-12T05:07:57.111Z,102583.52
2019-02-12T05:10:31.294Z,102587.20
2019-02-12T05:13:00.785Z,102590.52
2019-02-12T05:15:30.329Z,102591.78
2019-02-12T05:17:59.827Z,102587.68
2019-02-12T05:20:29.323Z,102583.81
2019-02-12T05:22:58.817Z,102588.73
2019-02-12T05:25:28.300Z,102590.25
2019-02-12T05:27:57.784Z,102591.52
2019-02-12T05:30:27.280Z,102593.72
2019-02-12T05:32:56.763Z,102590.38
2019-02-12T05:35:26.238Z,102591.90
2019-02-12T05:37:55.721Z,102595.73
2019-02-12T05:40:25.215Z,102596.36
2019-02-12T05:42:54.703Z,102603.64
2019-02-12T05:45:24.218Z,102601.71
2019-02-12T05:47:53.733Z,102602.72
2019-02-12T05:50:23.206Z,102609.11
2019-02-12T05:52:54.723Z,102607.83
2019-02-12T05:55:23.904Z,102598.14
2019-02-12T05:57:53.385Z,102597.67
2019-02-12T06:00:24.536Z,102598.34
2019-02-12T06:02:54.016Z,102596.55
2019-02-12T06:05:32.526Z,102599.89
2019-02-12T06:08:02.060Z,102605.89
2019-02-12T06:10:31.534Z,102599.75
2019-02-12T06:13:01.052Z,102597.44
2019-02-12T06:15:30.522Z,102599.96
2019-02-12T06:18:00.000Z,102596.63
2019-02-12T06:20:29.490Z,102598.40
2019-02-12T06:23:03.711Z,102592.00
2019-02-12T06:25:30.198Z,102592.26
2019-02-12T06:27:59.688Z,102593.59
2019-02-12T06:30:29.166Z,102595.87
2019-02-12T06:33:06.946Z,102604.33
2019-02-12T06:35:29.864Z,102595.12
2019-02-12T06:37:59.346Z,102599.48
2019-02-12T06:40:28.812Z,102602.05
2019-02-12T06:42:58.398Z,102607.67
2019-02-12T06:45:27.901Z,102606.42
2019-02-12T06:47:57.421Z,102611.28
2019-02-12T06:50:26.903Z,102603.84
2019-02-12T06:52:56.467Z,102606.66
2019-02-12T06:55:25.953Z,102612.54
2019-02-12T06:57:55.448Z,102614.84
2019-02-12T07:00:24.921Z,102620.20
2019-02-12T07:03:21.377Z,102616.00
2019-02-12T07:06:07.724Z,102628.17
2019-02-12T07:08:59.753Z,102627.14
2019-02-12T07:12:05.541Z,102629.17
2019-02-12T07:14:54.930Z,102631.23
2019-02-12T07:17:44.141Z,102636.20
2019-02-12T07:20:38.063Z,102645.30
2019-02-12T07:23:40.741Z,102645.91
2019-02-12T07:26:36.078Z,102644.14
2019-02-12T07:29:52.508Z,102654.36
2019-02-12T07:32:47.577Z,102665.23
2019-02-12T07:35:53.404Z,102679.06
2019-02-12T07:38:45.023Z,102670.61
2019-02-12T07:41:21.601Z,102683.53
2019-02-12T07:44:16.271Z,102697.63
2019-02-12T07:47:12.422Z,102700.05
2019-02-12T07:49:54.864Z,102705.40
2019-02-12T07:52:34.693Z,102705.83
2019-02-12T07:55:35.539Z,102710.82
2019-02-12T07:58:38.409Z,102713.85
2019-02-12T08:01:39.563Z,102715.69
2019-02-12T08:04:31.322Z,102718.10
2019-02-12T08:07:17.094Z,102726.92
2019-02-12T08:10:43.034Z,102732.55
2019-02-12T08:13:44.240Z,102737.59
2019-02-12T08:16:27.319Z,102745.45
2019-02-12T08:19:22.075Z,102759.73
2019-02-12T08:22:17.276Z,102755.61
2019-02-12T08:25:15.712Z,102754.02
2019-02-12T08:28:07.764Z,102755.01
2019-02-12T08:30:50.334Z,102754.55
2019-02-12T08:34:00.982Z,102751.59
2019-02-12T08:37:05.147Z,102756.48
2019-02-12T08:39:56.781Z,102754.40
2019-02-12T08:42:45.432Z,102757.27
2019-02-12T08:45:37.449Z,102769.08
2019-02-12T08:48:20.395Z,102768.87
2019-02-12T08:51:38.618Z,102765.48
2019-02-12T08:54:33.825Z,102772.19
2019-02-12T08:57:26.175Z,102772.98
2019-02-12T09:00:18.363Z,102772.63
2019-02-12T09:03:25.127Z,102778.61
2019-02-12T09:06:28.174Z,102778.05
2019-02-12T09:09:41.847Z,102775.09
2019-02-12T09:12:40.358Z,102774.64
2019-02-12T09:15:34.113Z,102781.17
2019-02-12T09:18:38.597Z,102787.21
2019-02-12T09:21:37.211Z,102779.27
2019-02-12T09:24:20.576Z,102786.88
2019-02-12T09:26:57.659Z,102793.60
2019-02-12T09:30:03.873Z,102793.73
2019-02-12T09:32:56.023Z,102795.32
2019-02-12T09:35:55.952Z,102801.34
2019-02-12T09:38:53.831Z,102799.73
2019-02-12T09:41:48.423Z,102806.19
2019-02-12T09:44:37.634Z,102808.30
2019-02-12T09:47:30.101Z,102813.00
2019-02-12T09:50:21.222Z,102807.92
2019-02-12T09:53:13.285Z,102816.05
2019-02-12T09:55:58.685Z,102812.89
2019-02-12T09:58:56.777Z,102814.81
2019-02-12T10:01:39.917Z,102809.09
2019-02-12T10:04:36.589Z,102805.17
2019-02-12T10:07:25.186Z,102814.02
2019-02-12T10:10:11.170Z,102814.20
2019-02-12T10:12:50.979Z,102811.28
2019-02-12T10:15:40.838Z,102813.66
2019-02-12T10:18:45.496Z,102820.12
2019-02-12T10:21:31.648Z,102810.04
2019-02-12T10:24:20.224Z,102821.88
2019-02-12T10:27:09.228Z,102827.34
2019-02-12T10:30:15.987Z,102822.08
2019-02-12T10:32:45.523Z,102825.70
2019-02-12T10:35:15.158Z,102819.98
2019-02-12T10:37:44.661Z,102815.77
2019-02-12T10:40:14.220Z,102815.82
2019-02-12T10:42:43.710Z,102825.00
2019-02-12T10:45:13.356Z,102825.00
2019-02-12T10:47:42.841Z,102823.81
2019-02-12T10:50:12.470Z,102820.66
2019-02-12T10:52:41.954Z,102812.02
2019-02-12T10:55:11.584Z,102804.45
2019-02-12T10:57:41.094Z,102803.23
2019-02-12T11:00:13.834Z,102791.02
2019-02-12T11:02:43.334Z,102795.48
2019-02-12T11:05:12.997Z,102807.33
2019-02-12T11:07:42.476Z,102817.00
2019-02-12T11:10:12.065Z,102817.30
2019-02-12T11:12:41.635Z,102810.89
2019-02-12T11:15:11.564Z,102805.18
2019-02-12T11:17:41.059Z,102800.87
2019-02-12T11:20:11.322Z,102805.59
2019-02-12T11:22:40.829Z,102809.30
2019-02-12T11:25:10.895Z,102806.78
2019-02-12T11:27:40.395Z,102812.51
2019-02-12T11:30:14.087Z,102806.45
2019-02-12T11:32:43.591Z,102806.02
2019-02-12T11:35:13.830Z,102796.70
2019-02-12T11:37:43.320Z,102793.89
2019-02-12T11:40:13.835Z,102796.59
2019-02-12T11:42:43.387Z,102801.13
2019-02-12T11:45:16.094Z,102796.12
2019-02-12T11:47:45.608Z,102792.59
2019-02-12T11:50:15.109Z,102794.00
2019-02-12T11:52:44.605Z,102792.77
2019-02-12T11:55:16.786Z,102787.98
2019-02-12T11:57:46.263Z,102791.78
2019-02-12T12:00:18.911Z,102790.28
2019-02-12T12:02:48.397Z,102800.17
2019-02-12T12:05:17.905Z,102796.12
2019-02-12T12:07:47.400Z,102796.53
2019-02-12T12:10:17.191Z,102797.00
2019-02-12T12:12:46.671Z,102799.19
2019-02-12T12:15:16.918Z,102804.94
2019-02-12T12:17:46.486Z,102792.39
2019-02-12T12:20:16.481Z,102791.09
2019-02-12T12:22:46.083Z,102791.17
2019-02-12T12:25:15.602Z,102790.61
2019-02-12T12:27:45.167Z,102785.32
2019-02-12T12:30:15.981Z,102792.48
2019-02-12T12:32:45.459Z,102785.10
2019-02-12T12:35:15.017Z,102784.92
2019-02-12T12:37:44.504Z,102785.87
2019-02-12T12:40:14.337Z,102790.38
2019-02-12T12:42:43.842Z,102782.39
2019-02-12T12:45:14.937Z,102785.16
2019-02-12T12:47:44.458Z,102784.82
2019-02-12T12:50:14.411Z,102778.27
2019-02-12T12:52:43.951Z,102783.48
2019-02-12T12:55:13.491Z,102784.75
2019-02-12T12:57:43.007Z,102786.70
2019-02-12T13:00:15.697Z,102783.80
2019-02-12T13:02:45.252Z,102780.88
2019-02-12T13:05:14.766Z,102778.41
2019-02-12T13:07:44.245Z,102772.72
2019-02-12T13:10:17.010Z,102780.27
2019-02-12T13:12:46.506Z,102778.06
2019-02-12T13:15:16.540Z,102776.13
2019-02-12T13:17:46.085Z,102776.95
2019-02-12T13:20:18.280Z,102773.39
2019-02-12T13:22:47.874Z,102771.52
2019-02-12T13:25:17.423Z,102771.47
2019-02-12T13:27:46.918Z,102764.69
2019-02-12T13:30:18.859Z,102762.48
2019-02-12T13:32:48.345Z,102756.37
2019-02-12T13:35:17.848Z,102763.20
2019-02-12T13:37:47.385Z,102767.91
2019-02-12T13:40:17.886Z,102774.38
2019-02-12T13:42:47.376Z,102770.80
2019-02-12T13:45:17.899Z,102770.91
2019-02-12T13:47:47.389Z,102765.98
2019-02-12T13:50:16.964Z,102771.33
2019-02-12T13:52:46.475Z,102771.05
2019-02-12T13:55:17.636Z,102776.47
2019-02-12T13:57:47.256Z,102774.36
2019-02-12T14:00:18.382Z,102769.07
2019-02-12T14:02:47.941Z,102778.41
2019-02-12T14:05:22.094Z,102783.48
2019-02-12T14:07:51.598Z,102782.48
2019-02-12T14:10:21.063Z,102788.00
2019-02-12T14:12:50.547Z,102793.69
2019-02-12T14:15:20.050Z,102791.32
2019-02-12T14:17:49.556Z,102788.05
2019-02-12T14:20:19.436Z,102787.11
2019-02-12T14:22:48.912Z,102793.27
2019-02-12T14:25:25.286Z,102785.02
2019-02-12T14:27:49.667Z,102792.33
2019-02-12T14:30:21.603Z,102791.53
2019-02-12T14:32:51.267Z,102791.09
2019-02-12T14:35:20.740Z,102786.06
2019-02-12T14:37:50.242Z,102794.41
2019-02-12T14:40:19.727Z,102790.61
2019-02-12T14:42:49.207Z,102793.03
2019-02-12T14:45:20.021Z,102795.87
2019-02-12T14:47:49.577Z,102794.48
2019-02-12T14:50:22.739Z,102796.42
2019-02-12T14:52:52.279Z,102801.94
2019-02-12T14:55:21.785Z,102802.27
2019-02-12T14:57:51.296Z,102797.82
2019-02-12T15:00:21.566Z,102800.99
2019-02-12T15:02:51.111Z,102800.24
2019-02-12T15:05:20.606Z,102799.09
2019-02-12T15:07:50.151Z,102799.59
2019-02-12T15:10:19.642Z,102794.72
2019-02-12T15:12:49.146Z,102795.30
2019-02-12T15:15:18.636Z,102793.73
2019-02-12T15:17:48.153Z,102800.72
2019-02-12T15:20:17.697Z,102789.70
2019-02-12T15:22:47.189Z,102778.64
2019-02-12T15:25:16.743Z,102786.80
2019-02-12T15:27:46.246Z,102781.51
2019-02-12T15:30:18.944Z,102784.89
2019-02-12T15:32:48.480Z,102788.25
2019-02-12T15:35:17.951Z,102787.22
2019-02-12T15:37:47.527Z,102789.34
2019-02-12T15:40:20.365Z,102793.66
2019-02-12T15:42:49.853Z,102801.54
2019-02-12T15:45:22.044Z,102803.37
2019-02-12T15:47:51.547Z,102796.23
2019-02-12T15:50:21.137Z,102789.55
2019-02-12T15:52:50.615Z,102791.91
2019-02-12T15:55:20.127Z,102796.24
2019-02-12T15:57:49.695Z,102799.78
2019-02-12T16:00:21.379Z,102806.24
2019-02-12T16:02:50.933Z,102805.73
2019-02-12T16:05:20.418Z,102805.89
2019-02-12T16:07:49.984Z,102799.54
2019-02-12T16:10:20.967Z,102792.39
2019-02-12T16:12:51.413Z,102802.19
2019-02-12T16:15:24.388Z,102797.73
2019-02-12T16:17:52.897Z,102800.67
2019-02-12T16:20:22.460Z,102802.34
2019-02-12T16:22:52.025Z,102799.71
2019-02-12T16:25:21.583Z,102798.08
2019-02-12T16:27:51.168Z,102796.75
2019-02-12T16:30:22.165Z,102803.67
2019-02-12T16:32:51.695Z,102803.67
2019-02-12T16:35:21.210Z,102805.28
2019-02-12T16:37:50.672Z,102809.06
2019-02-12T16:40:20.319Z,102807.16
2019-02-12T16:42:49.806Z,102808.95
2019-02-12T16:45:39.053Z,102810.54
2019-02-12T16:48:08.560Z,102806.48
2019-02-12T16:50:38.065Z,102812.41
2019-02-12T16:53:07.548Z,102818.44
2019-02-12T16:55:37.107Z,102823.91
2019-02-12T16:58:06.750Z,102826.68
2019-02-12T17:00:36.358Z,102822.17
2019-02-12T17:03:06.184Z,102825.73
2019-02-12T17:05:35.736Z,102828.16
2019-02-12T17:08:05.362Z,102827.73
2019-02-12T17:10:34.858Z,102825.34
2019-02-12T17:13:04.358Z,102827.36
2019-02-12T17:15:33.957Z,102831.99
2019-02-12T17:18:04.413Z,102827.23
2019-02-12T17:20:33.892Z,102828.27
2019-02-12T17:23:03.401Z,102830.39
2019-02-12T17:25:33.016Z,102837.58
2019-02-12T17:28:02.551Z,102841.67
2019-02-12T17:30:32.184Z,102844.69
2019-02-12T17:33:01.676Z,102846.99
2019-02-12T17:35:31.180Z,102850.14
2019-02-12T17:38:00.648Z,102850.48
2019-02-12T17:40:30.167Z,102850.67
2019-02-12T17:42:59.657Z,102850.55
2019-02-12T17:45:29.184Z,102849.50
2019-02-12T17:47:58.693Z,102855.81
2019-02-12T17:50:28.215Z,102854.65
2019-02-12T17:52:57.728Z,102858.05
2019-02-12T17:55:27.207Z,102855.70
2019-02-12T17:57:56.706Z,102854.09
2019-02-12T18:00:33.465Z,102856.43
2019-02-12T18:03:03.007Z,102857.22
2019-02-12T18:05:32.579Z,102861.91
2019-02-12T18:08:02.060Z,102857.72
2019-02-12T18:10:31.554Z,102862.87
2019-02-12T18:13:01.052Z,102869.55
2019-02-12T18:15:30.555Z,102874.69
2019-02-12T18:18:00.057Z,102872.71
2019-02-12T18:20:29.537Z,102874.53
2019-02-12T18:22:59.078Z,102874.91
2019-02-12T18:25:28.666Z,102871.65
2019-02-12T18:27:58.291Z,102867.92
2019-02-12T18:30:27.795Z,102870.28
2019-02-12T18:32:57.460Z,102870.41
2019-02-12T18:35:26.959Z,102863.09
2019-02-12T18:37:56.471Z,102862.47
2019-02-12T18:40:26.066Z,102860.78
2019-02-12T18:42:55.591Z,102864.49
2019-02-12T18:45:26.889Z,102868.85
2019-02-12T18:47:56.452Z,102869.30
2019-02-12T18:50:26.078Z,102869.20
2019-02-12T18:52:55.529Z,102867.95
2019-02-12T18:55:25.106Z,102873.58
2019-02-12T18:57:54.599Z,102871.34
2019-02-12T19:00:24.653Z,102871.56
2019-02-12T19:02:54.172Z,102870.55
2019-02-12T19:05:23.791Z,102867.17
2019-02-12T19:07:53.289Z,102865.39
2019-02-12T19:10:22.851Z,102869.42
2019-02-12T19:12:52.397Z,102863.87
2019-02-12T19:15:22.923Z,102863.64
2019-02-12T19:18:08.686Z,102870.87
2019-02-12T19:20:38.222Z,102872.98
2019-02-12T19:23:07.877Z,102875.92
2019-02-12T19:25:37.466Z,102869.92
2019-02-12T19:28:06.988Z,102878.59
2019-02-12T19:30:36.632Z,102874.24
2019-02-12T19:33:06.187Z,102877.08
2019-02-12T19:35:35.767Z,102878.93
2019-02-12T19:38:05.394Z,102868.86
2019-02-12T19:40:35.044Z,102866.45
2019-02-12T19:43:04.632Z,102875.93
2019-02-12T19:45:34.334Z,102880.78
2019-02-12T19:48:03.851Z,102880.53
2019-02-12T19:50:33.389Z,102872.32
2019-02-12T19:53:03.008Z,102874.16
2019-02-12T19:55:32.562Z,102872.88
2019-02-12T19:58:02.072Z,102872.41
2019-02-12T20:00:31.625Z,102880.34
2019-02-12T20:03:01.226Z,102886.24
2019-02-12T20:05:30.733Z,102882.50
2019-02-12T20:08:00.212Z,102885.38
2019-02-12T20:10:29.946Z,102882.59
2019-02-12T20:12:59.459Z,102882.20
2019-02-12T20:15:28.969Z,102881.97
2019-02-12T20:17:58.499Z,102887.41
2019-02-12T20:20:28.010Z,102893.68
2019-02-12T20:22:57.507Z,102891.73
2019-02-12T20:25:27.142Z,102888.20
2019-02-12T20:27:56.680Z,102885.60
2019-02-12T20:30:26.396Z,102887.05
2019-02-12T20:32:55.975Z,102884.48
2019-02-12T20:35:25.489Z,102888.88
2019-02-12T20:37:55.107Z,102891.64
2019-02-12T20:40:44.310Z,102888.33
2019-02-12T20:43:14.020Z,102887.34
2019-02-12T20:45:43.597Z,102889.91
2019-02-12T20:48:13.389Z,102888.48
2019-02-12T20:50:44.089Z,102891.98
2019-02-12T20:53:13.719Z,102884.66
2019-02-12T20:55:43.229Z,102888.27
2019-02-12T20:58:12.805Z,102891.20
2019-02-12T21:00:42.333Z,102888.91
2019-02-12T21:03:11.824Z,102895.23
2019-02-12T21:05:41.355Z,102897.55
2019-02-12T21:08:11.055Z,102895.48
2019-02-12T21:10:40.573Z,102895.77
2019-02-12T21:13:10.093Z,102899.22
2019-02-12T21:15:39.613Z,102892.91
2019-02-12T21:18:09.234Z,102896.66
2019-02-12T21:20:38.810Z,102898.94
2019-02-12T21:23:08.388Z,102897.72
2019-02-12T21:25:37.880Z,102901.04
2019-02-12T21:28:07.444Z,102896.66
2019-02-12T21:30:37.022Z,102895.09
2019-02-12T21:33:06.534Z,102892.66
2019-02-12T21:35:36.019Z,102898.44
2019-02-12T21:38:07.163Z,102906.85
2019-02-12T21:40:36.756Z,102911.40
2019-02-12T21:43:06.288Z,102915.34
2019-02-12T21:45:35.912Z,102914.71
2019-02-12T21:48:05.640Z,102924.56
2019-02-12T21:50:35.147Z,102929.09
2019-02-12T21:53:04.727Z,102930.12
2019-02-12T21:55:34.317Z,102929.73
2019-02-12T21:58:03.929Z,102926.55
2019-02-12T22:00:33.433Z,102924.43
2019-02-12T22:03:02.983Z,102917.23
2019-02-12T22:05:32.485Z,102920.55
2019-02-12T22:08:01.946Z,102937.50
2019-02-12T22:10:31.906Z,102947.31
2019-02-12T22:13:01.389Z,102951.67
2019-02-12T22:15:30.891Z,102955.63
2019-02-12T22:18:00.627Z,102969.39
2019-02-12T22:20:30.120Z,102967.80
2019-02-12T22:22:59.722Z,102971.56
2019-02-12T22:25:29.206Z,102965.02
2019-02-12T22:27:58.758Z,102967.61
2019-02-12T22:30:28.252Z,102963.27
2019-02-12T22:32:57.820Z,102956.33
2019-02-12T22:35:27.316Z,102947.20
2019-02-12T22:37:56.825Z,102954.90
2019-02-12T22:40:26.497Z,102961.56
2019-02-12T22:42:56.004Z,102969.03
2019-02-12T22:45:26.735Z,102965.07
2019-02-12T22:47:56.229Z,102973.53
2019-02-12T22:50:25.709Z,102972.75
2019-02-12T22:52:55.211Z,102970.47
2019-02-12T22:55:25.470Z,102971.08
2019-02-12T22:57:55.013Z,102975.82
2019-02-12T23:00:45.417Z,102969.92
2019-02-12T23:03:15.038Z,102968.61
2019-02-12T23:05:44.680Z,102971.84
2019-02-12T23:08:14.251Z,102977.34
2019-02-12T23:10:43.833Z,102978.87
2019-02-12T23:13:13.308Z,102976.58
2019-02-12T23:15:42.932Z,102974.05
2019-02-12T23:18:12.382Z,102970.08
2019-02-12T23:20:41.888Z,102966.63
2019-02-12T23:23:11.740Z,102961.47
2019-02-12T23:25:41.217Z,102959.18
2019-02-12T23:28:10.725Z,102956.36
2019-02-12T23:30:40.215Z,102958.13
2019-02-12T23:33:09.830Z,102962.25
2019-02-12T23:35:39.305Z,102971.74
2019-02-12T23:38:08.925Z,102970.72
2019-02-12T23:40:38.498Z,102971.00
2019-02-12T23:43:08.044Z,102968.92
2019-02-12T23:45:37.649Z,102964.00
2019-02-12T23:48:07.121Z,102958.33
2019-02-12T23:50:36.623Z,102960.49
2019-02-12T23:53:06.103Z,102956.25
2019-02-12T23:55:35.576Z,102961.16
2019-02-12T23:58:06.207Z,102969.27
